Time;durP1;ratioP1;P1;durP2;ratioP2;P2;SDS_P1;SDS_P2;PMS_P1;PMS_P2;Temp;Humidity;BMP_temperature;BMP_pressure;BME280_temperature;BME280_humidity;BME280_pressure;Samples;Min_cycle;Max_cycle;Signal;HPM_P1;HPM_P2
2022/09/25 00:00:49;;;;;;;;;;;13.60;99.60;;;;;;6120016;23;20258;-80
2022/09/25 00:03:17;;;;;;;;;;;13.70;99.40;;;;;;6118901;23;20266;-81
2022/09/25 00:05:44;;;;;;;;;;;13.60;99.30;;;;;;6119662;23;20013;-81
2022/09/25 00:08:11;;;;;;;;;;;13.70;99.20;;;;;;6094982;23;19949;-81
2022/09/25 00:10:43;;;;;;;;;;;13.70;99.10;;;;;;6119696;23;20400;-81
2022/09/25 00:13:09;;;;;;;;;;;13.70;99.00;;;;;;6119041;23;20025;-81
2022/09/25 00:15:36;;;;;;;;;;;13.70;98.90;;;;;;6119970;23;19921;-81
2022/09/25 00:18:03;;;;;;;;;;;13.70;98.80;;;;;;6119336;23;19961;-81
2022/09/25 00:20:30;;;;;;;;;;;13.70;98.70;;;;;;6118919;23;19997;-81
2022/09/25 00:22:58;;;;;;;;;;;13.70;98.90;;;;;;6095234;23;20338;-80
2022/09/25 00:25:27;;;;;;;;;;;13.70;99.00;;;;;;6094632;23;19945;-81
2022/09/25 00:27:54;;;;;;;;;;;13.60;99.00;;;;;;6096617;23;19948;-80
2022/09/25 00:30:21;;;;;;;;;;;13.60;98.90;;;;;;6119041;23;20017;-81
2022/09/25 00:32:48;;;;;;;;;;;13.60;98.70;;;;;;6118721;23;19988;-81
2022/09/25 00:35:15;;;;;;;;;;;13.60;98.60;;;;;;6119078;23;19984;-81
2022/09/25 00:37:41;;;;;;;;;;;13.60;98.60;;;;;;6096546;23;19921;-81
2022/09/25 00:40:08;;;;;;;;;;;13.60;98.40;;;;;;6118784;23;19992;-80
2022/09/25 00:42:35;;;;;;;;;;;13.60;98.60;;;;;;6119619;23;19917;-81
2022/09/25 00:45:22;;;;;;;;;;;13.60;98.90;;;;;;6119410;23;19921;-81
2022/09/25 00:47:57;;;;;;;;;;;13.60;99.00;;;;;;6094042;23;19917;-81
2022/09/25 00:50:28;;;;;;;;;;;13.60;99.00;;;;;;6118754;23;20254;-80
2022/09/25 00:52:57;;;;;;;;;;;13.60;99.30;;;;;;6119135;23;19917;-81
2022/09/25 00:55:24;;;;;;;;;;;13.50;99.40;;;;;;6096512;23;19992;-81
2022/09/25 00:57:52;;;;;;;;;;;13.50;99.60;;;;;;6094766;23;20447;-81
2022/09/25 01:00:19;;;;;;;;;;;13.50;99.50;;;;;;6097191;23;19928;-81
2022/09/25 01:02:52;;;;;;;;;;;13.50;99.40;;;;;;6095108;23;19945;-82
2022/09/25 01:05:20;;;;;;;;;;;13.50;99.40;;;;;;6119320;23;19976;-81
2022/09/25 01:07:48;;;;;;;;;;;13.50;99.40;;;;;;6118459;23;19925;-81
2022/09/25 01:10:16;;;;;;;;;;;13.40;99.20;;;;;;6096556;23;19924;-82
2022/09/25 01:12:44;;;;;;;;;;;13.50;99.20;;;;;;6118423;23;19993;-82
2022/09/25 01:15:12;;;;;;;;;;;13.50;99.10;;;;;;6119208;23;20392;-81
2022/09/25 01:17:57;;;;;;;;;;;13.50;99.40;;;;;;6118250;23;19917;-82
2022/09/25 01:20:32;;;;;;;;;;;13.50;98.90;;;;;;6119480;23;20245;-81
2022/09/25 01:23:02;;;;;;;;;;;13.50;99.20;;;;;;6118525;23;20000;-81
2022/09/25 01:25:54;;;;;;;;;;;13.50;99.10;;;;;;6096385;23;19917;-81
2022/09/25 01:28:28;;;;;;;;;;;13.50;99.00;;;;;;6095756;23;19948;-81
2022/09/25 01:31:02;;;;;;;;;;;13.50;98.90;;;;;;6096057;23;19999;-82
2022/09/25 01:33:41;;;;;;;;;;;13.60;98.80;;;;;;6118509;23;20287;-82
2022/09/25 01:36:13;;;;;;;;;;;13.60;98.80;;;;;;6095599;23;19945;-81
2022/09/25 01:38:42;;;;;;;;;;;13.60;98.90;;;;;;6119243;23;19947;-81
2022/09/25 01:41:15;;;;;;;;;;;13.50;99.60;;;;;;6094980;23;20253;-82
2022/09/25 01:43:54;;;;;;;;;;;13.50;99.90;;;;;;6119041;23;20017;-82
2022/09/25 01:46:22;;;;;;;;;;;13.50;99.60;;;;;;6118241;23;19939;-82
2022/09/25 01:48:54;;;;;;;;;;;13.50;99.50;;;;;;6094686;23;19921;-82
2022/09/25 01:51:27;;;;;;;;;;;13.50;99.40;;;;;;6118453;23;20283;-82
2022/09/25 01:53:55;;;;;;;;;;;13.50;99.20;;;;;;6119127;23;19988;-82
2022/09/25 01:56:32;;;;;;;;;;;13.50;99.10;;;;;;6118172;23;20000;-82
2022/09/25 01:59:02;;;;;;;;;;;13.50;99.00;;;;;;6096034;23;20298;-82
2022/09/25 02:01:31;;;;;;;;;;;13.50;99.00;;;;;;6118284;23;19992;-82
2022/09/25 02:04:02;;;;;;;;;;;13.50;99.50;;;;;;6118793;23;19940;-82
2022/09/25 02:06:31;;;;;;;;;;;13.50;99.90;;;;;;6118229;23;19925;-82
2022/09/25 02:09:18;;;;;;;;;;;13.50;99.60;;;;;;6094277;23;19941;-82
2022/09/25 02:11:47;;;;;;;;;;;13.40;99.40;;;;;;6093924;23;19992;-82
2022/09/25 02:14:17;;;;;;;;;;;13.40;99.40;;;;;;6119197;23;19924;-82
2022/09/25 02:16:45;;;;;;;;;;;13.40;99.30;;;;;;6120025;23;19921;-82
2022/09/25 02:22:02;;;;;;;;;;;13.40;99.20;;;;;;6068492;23;19924;-82
2022/09/25 02:24:28;;;;;;;;;;;13.40;99.10;;;;;;6067962;23;19948;-81
2022/09/25 02:26:55;;;;;;;;;;;13.40;99.20;;;;;;6066966;23;19927;-82
2022/09/25 02:29:22;;;;;;;;;;;13.40;99.20;;;;;;6067613;23;19925;-82
2022/09/25 02:31:52;;;;;;;;;;;13.50;99.30;;;;;;6067204;23;19928;-82
2022/09/25 02:34:19;;;;;;;;;;;13.40;99.30;;;;;;6067581;23;19964;-82
2022/09/25 02:36:47;;;;;;;;;;;13.50;99.20;;;;;;6066907;23;19917;-83
2022/09/25 02:39:15;;;;;;;;;;;13.40;99.40;;;;;;6066319;23;19921;-81
2022/09/25 02:42:08;;;;;;;;;;;13.40;99.90;;;;;;6066491;23;19917;-81
2022/09/25 02:44:53;;;;;;;;;;;13.30;99.90;;;;;;6068852;23;19923;-82
2022/09/25 02:47:35;;;;;;;;;;;13.30;99.90;;;;;;6109173;23;20338;-77
2022/09/25 02:50:20;;;;;;;;;;;13.20;99.90;;;;;;6124399;23;19923;-77
2022/09/25 02:52:59;;;;;;;;;;;13.30;99.90;;;;;;6121743;23;20390;-86
2022/09/25 02:55:31;;;;;;;;;;;13.20;99.90;;;;;;6119989;23;19921;-85
2022/09/25 02:58:01;;;;;;;;;;;13.20;99.90;;;;;;6120842;23;20370;-85
2022/09/25 03:00:29;;;;;;;;;;;13.20;99.90;;;;;;6067081;23;19949;-85
2022/09/25 03:02:58;;;;;;;;;;;13.20;99.90;;;;;;6043967;23;19988;-85
2022/09/25 03:05:25;;;;;;;;;;;13.20;99.90;;;;;;6066983;23;19929;-86
2022/09/25 03:10:37;;;;;;;;;;;13.20;99.90;;;;;;6097137;23;19989;-86
2022/09/25 03:13:14;;;;;;;;;;;13.20;99.90;;;;;;6120856;23;19917;-86
2022/09/25 03:15:44;;;;;;;;;;;13.30;99.90;;;;;;6120173;23;20254;-86
2022/09/25 03:18:11;;;;;;;;;;;13.30;99.90;;;;;;6120621;23;19953;-86
2022/09/25 03:20:38;;;;;;;;;;;13.30;99.90;;;;;;6095651;23;19923;-86
2022/09/25 03:23:04;;;;;;;;;;;13.30;99.90;;;;;;6120543;23;20298;-85
2022/09/25 03:25:31;;;;;;;;;;;13.30;99.90;;;;;;6119977;23;19984;-86
2022/09/25 03:27:58;;;;;;;;;;;13.30;99.90;;;;;;6097285;23;19988;-85
2022/09/25 03:30:24;;;;;;;;;;;13.30;99.90;;;;;;6095449;23;20378;-85
2022/09/25 03:32:51;;;;;;;;;;;13.30;99.90;;;;;;6120320;23;20402;-85
2022/09/25 03:35:18;;;;;;;;;;;13.30;99.90;;;;;;6119752;23;19929;-84
2022/09/25 03:37:45;;;;;;;;;;;13.30;99.90;;;;;;6096073;23;19991;-86
2022/09/25 03:40:11;;;;;;;;;;;13.30;99.90;;;;;;6120472;23;20339;-86
2022/09/25 03:42:38;;;;;;;;;;;13.30;99.90;;;;;;6119818;23;19925;-85
2022/09/25 03:45:05;;;;;;;;;;;13.30;99.90;;;;;;6120230;23;19952;-85
2022/09/25 03:47:32;;;;;;;;;;;13.30;99.90;;;;;;6119851;23;20255;-86
2022/09/25 03:49:59;;;;;;;;;;;13.30;99.90;;;;;;6120194;23;20257;-85
2022/09/25 03:52:26;;;;;;;;;;;13.30;99.90;;;;;;6119643;23;19917;-85
2022/09/25 03:54:52;;;;;;;;;;;13.20;99.90;;;;;;6119968;23;19992;-86
2022/09/25 03:57:19;;;;;;;;;;;13.20;99.90;;;;;;6119275;23;19917;-85
2022/09/25 03:59:46;;;;;;;;;;;13.30;99.80;;;;;;6120189;23;19924;-85
2022/09/25 04:02:12;;;;;;;;;;;13.20;99.70;;;;;;6097273;23;19944;-85
2022/09/25 04:04:39;;;;;;;;;;;13.20;99.70;;;;;;6119392;23;19925;-85
2022/09/25 04:07:07;;;;;;;;;;;13.20;99.60;;;;;;6120500;23;20246;-85
2022/09/25 04:09:34;;;;;;;;;;;13.10;99.60;;;;;;6095017;23;20347;-85
2022/09/25 04:12:00;;;;;;;;;;;13.10;99.90;;;;;;6119905;23;19917;-86
2022/09/25 04:14:27;;;;;;;;;;;13.10;99.90;;;;;;6119442;23;20245;-85
2022/09/25 04:16:54;;;;;;;;;;;13.00;99.90;;;;;;6095835;23;19917;-85
2022/09/25 04:19:21;;;;;;;;;;;13.00;99.90;;;;;;6095789;23;20331;-86
2022/09/25 04:21:47;;;;;;;;;;;13.00;99.90;;;;;;6095765;23;20238;-85
2022/09/25 04:27:00;;;;;;;;;;;13.00;99.90;;;;;;6096623;23;19995;-85
2022/09/25 04:29:27;;;;;;;;;;;13.00;99.90;;;;;;6119883;23;19921;-86
2022/09/25 04:34:39;;;;;;;;;;;13.10;99.90;;;;;;6096210;23;19996;-86
2022/09/25 04:37:05;;;;;;;;;;;13.10;99.90;;;;;;6120356;23;19941;-86
2022/09/25 04:39:32;;;;;;;;;;;13.10;99.90;;;;;;6119585;23;20315;-86
2022/09/25 04:41:59;;;;;;;;;;;13.10;99.90;;;;;;6119005;23;19922;-85
2022/09/25 04:44:26;;;;;;;;;;;13.10;99.90;;;;;;6119878;23;19984;-86
2022/09/25 04:46:53;;;;;;;;;;;13.10;99.90;;;;;;6118996;23;19977;-86
2022/09/25 04:49:20;;;;;;;;;;;13.10;99.90;;;;;;6097077;23;20231;-86
2022/09/25 04:51:46;;;;;;;;;;;13.10;99.90;;;;;;6118958;23;19924;-86
2022/09/25 04:54:15;;;;;;;;;;;13.10;99.90;;;;;;6120144;23;19921;-86
2022/09/25 04:56:42;;;;;;;;;;;13.10;99.90;;;;;;6118908;23;20326;-84
2022/09/25 04:59:10;;;;;;;;;;;13.10;99.90;;;;;;6119850;23;19921;-86
2022/09/25 05:01:37;;;;;;;;;;;13.10;99.90;;;;;;6118730;23;19949;-84
2022/09/25 05:04:04;;;;;;;;;;;13.10;99.90;;;;;;6119629;23;19923;-86
2022/09/25 05:06:34;;;;;;;;;;;13.00;99.90;;;;;;6119333;23;19917;-86
2022/09/25 05:09:01;;;;;;;;;;;13.00;99.90;;;;;;6094495;23;19980;-85
2022/09/25 05:11:28;;;;;;;;;;;13.00;99.80;;;;;;6119660;23;20235;-86
2022/09/25 05:13:55;;;;;;;;;;;12.90;99.50;;;;;;6118936;23;19960;-84
2022/09/25 05:16:21;;;;;;;;;;;12.90;99.40;;;;;;6119535;23;19917;-84
2022/09/25 05:18:49;;;;;;;;;;;12.80;99.30;;;;;;6095997;23;20327;-85
2022/09/25 05:21:16;;;;;;;;;;;12.70;99.40;;;;;;6095316;23;19917;-85
2022/09/25 05:23:43;;;;;;;;;;;12.60;99.80;;;;;;6118709;23;19995;-84
2022/09/25 05:26:09;;;;;;;;;;;12.50;99.70;;;;;;6119420;23;20375;-84
2022/09/25 05:28:36;;;;;;;;;;;12.50;99.70;;;;;;6119206;23;19917;-85
2022/09/25 05:31:04;;;;;;;;;;;12.50;99.70;;;;;;6118432;23;19917;-84
2022/09/25 05:33:31;;;;;;;;;;;12.40;99.60;;;;;;6119963;23;19917;-86
2022/09/25 05:36:02;;;;;;;;;;;12.40;99.60;;;;;;6118777;23;19927;-85
2022/09/25 05:38:30;;;;;;;;;;;12.40;99.80;;;;;;6097229;23;19972;-86
2022/09/25 05:41:04;;;;;;;;;;;12.40;99.90;;;;;;6118775;23;19920;-85
2022/09/25 05:43:31;;;;;;;;;;;12.40;99.90;;;;;;6119333;23;19950;-85
2022/09/25 05:45:58;;;;;;;;;;;12.40;99.90;;;;;;6118469;23;19928;-85
2022/09/25 05:48:25;;;;;;;;;;;12.50;99.90;;;;;;6096681;23;19921;-84
2022/09/25 05:50:53;;;;;;;;;;;12.50;99.90;;;;;;6093924;23;20331;-86
2022/09/25 05:53:20;;;;;;;;;;;12.60;99.90;;;;;;6119582;23;19965;-86
2022/09/25 05:55:53;;;;;;;;;;;12.60;99.90;;;;;;6120830;23;19941;-85
2022/09/25 05:58:20;;;;;;;;;;;12.60;99.90;;;;;;6119397;23;19936;-85
2022/09/25 06:00:47;;;;;;;;;;;12.40;99.90;;;;;;6095588;23;19923;-85
2022/09/25 06:03:15;;;;;;;;;;;12.40;99.90;;;;;;6119262;23;20353;-84
2022/09/25 06:05:44;;;;;;;;;;;12.40;99.90;;;;;;6119199;23;19961;-86
2022/09/25 06:08:12;;;;;;;;;;;12.40;99.90;;;;;;6120565;23;19917;-85
2022/09/25 06:10:39;;;;;;;;;;;12.30;99.90;;;;;;6119301;23;20004;-84
2022/09/25 06:13:05;;;;;;;;;;;12.20;99.90;;;;;;6095516;23;19955;-85
2022/09/25 06:15:36;;;;;;;;;;;12.20;99.90;;;;;;6118847;23;19980;-85
2022/09/25 06:18:04;;;;;;;;;;;12.30;99.90;;;;;;6095412;23;19988;-85
2022/09/25 06:20:31;;;;;;;;;;;12.40;99.90;;;;;;6119472;23;20302;-84
2022/09/25 06:22:59;;;;;;;;;;;12.40;99.90;;;;;;6118345;23;19924;-84
2022/09/25 06:25:27;;;;;;;;;;;12.50;99.90;;;;;;6118998;23;19921;-85
2022/09/25 06:27:55;;;;;;;;;;;12.50;99.90;;;;;;6117961;23;19988;-85
2022/09/25 06:30:22;;;;;;;;;;;12.50;99.90;;;;;;6119194;23;19917;-85
2022/09/25 06:32:56;;;;;;;;;;;12.50;99.90;;;;;;6118739;23;19976;-86
2022/09/25 06:35:23;;;;;;;;;;;12.60;99.90;;;;;;6119213;23;19988;-85
2022/09/25 06:37:49;;;;;;;;;;;12.60;99.90;;;;;;6118068;23;19924;-85
2022/09/25 06:40:16;;;;;;;;;;;12.70;99.90;;;;;;6119262;23;20254;-85
2022/09/25 06:42:44;;;;;;;;;;;12.70;99.90;;;;;;6093432;23;19921;-84
2022/09/25 06:45:11;;;;;;;;;;;12.80;99.90;;;;;;6118843;23;19928;-84
2022/09/25 06:47:38;;;;;;;;;;;12.80;99.90;;;;;;6118857;23;20016;-85
2022/09/25 06:50:05;;;;;;;;;;;12.90;99.90;;;;;;6118511;23;19996;-86
2022/09/25 06:52:32;;;;;;;;;;;12.90;99.90;;;;;;6119016;23;19923;-85
2022/09/25 06:54:58;;;;;;;;;;;12.70;99.90;;;;;;6095178;23;19984;-84
2022/09/25 06:57:25;;;;;;;;;;;12.80;99.90;;;;;;6119360;23;20239;-85
2022/09/25 06:59:52;;;;;;;;;;;12.80;99.90;;;;;;6118179;23;20327;-85
2022/09/25 07:05:04;;;;;;;;;;;12.90;99.90;;;;;;6096949;23;19925;-85
2022/09/25 07:07:31;;;;;;;;;;;13.00;99.90;;;;;;6120895;23;19939;-84
2022/09/25 07:10:00;;;;;;;;;;;13.10;99.90;;;;;;6120328;23;19953;-86
2022/09/25 07:12:26;;;;;;;;;;;13.10;99.90;;;;;;6121451;23;19948;-86
2022/09/25 07:14:53;;;;;;;;;;;13.20;99.90;;;;;;6120924;23;19928;-85
2022/09/25 07:17:20;;;;;;;;;;;13.30;99.90;;;;;;6098893;23;19917;-85
2022/09/25 07:19:47;;;;;;;;;;;13.50;99.90;;;;;;6122829;23;19945;-86
2022/09/25 07:22:14;;;;;;;;;;;13.70;99.90;;;;;;6100742;23;19917;-85
2022/09/25 07:24:40;;;;;;;;;;;13.90;99.90;;;;;;6125885;23;19953;-86
2022/09/25 07:27:07;;;;;;;;;;;14.10;99.90;;;;;;6122425;23;19924;-86
2022/09/25 07:29:34;;;;;;;;;;;14.40;98.90;;;;;;6122213;23;19959;-85
2022/09/25 07:32:01;;;;;;;;;;;14.70;99.10;;;;;;6096239;23;19956;-85
2022/09/25 07:34:28;;;;;;;;;;;14.90;96.10;;;;;;6121247;23;20310;-86
2022/09/25 07:36:54;;;;;;;;;;;15.00;96.10;;;;;;6119786;23;19941;-85
2022/09/25 07:39:21;;;;;;;;;;;15.20;95.70;;;;;;6120226;23;19917;-86
2022/09/25 07:41:48;;;;;;;;;;;15.20;95.00;;;;;;6119626;23;19988;-86
2022/09/25 07:44:14;;;;;;;;;;;15.20;93.50;;;;;;6120318;23;19916;-86
2022/09/25 07:47:02;;;;;;;;;;;15.30;93.10;;;;;;6115481;23;19917;-85
2022/09/25 07:49:30;;;;;;;;;;;15.30;93.20;;;;;;6097228;23;19917;-85
2022/09/25 07:51:56;;;;;;;;;;;15.30;93.30;;;;;;6119246;23;19949;-85
2022/09/25 07:54:23;;;;;;;;;;;15.30;93.60;;;;;;6120116;23;19975;-86
2022/09/25 07:56:50;;;;;;;;;;;15.40;93.30;;;;;;6119339;23;19917;-86
2022/09/25 07:59:17;;;;;;;;;;;15.40;93.00;;;;;;6120012;23;19921;-86
2022/09/25 08:01:44;;;;;;;;;;;15.40;92.80;;;;;;6120470;23;19956;-84
2022/09/25 08:04:18;;;;;;;;;;;15.50;93.30;;;;;;6119805;23;19921;-84
2022/09/25 08:06:45;;;;;;;;;;;15.60;92.90;;;;;;6127212;23;19988;-83
2022/09/25 08:09:11;;;;;;;;;;;15.60;92.60;;;;;;6122920;23;19988;-85
2022/09/25 08:11:38;;;;;;;;;;;15.50;92.00;;;;;;6123813;23;20357;-85
2022/09/25 08:14:05;;;;;;;;;;;15.50;92.20;;;;;;6126530;23;19917;-84
2022/09/25 08:16:32;;;;;;;;;;;15.60;92.50;;;;;;6128279;23;19944;-84
2022/09/25 08:18:58;;;;;;;;;;;15.60;93.00;;;;;;6126460;23;20334;-85
2022/09/25 08:21:25;;;;;;;;;;;15.60;93.00;;;;;;6124959;23;20250;-85
2022/09/25 08:23:53;;;;;;;;;;;15.70;93.10;;;;;;6126743;23;19999;-84
2022/09/25 08:26:20;;;;;;;;;;;15.70;92.90;;;;;;6127433;23;19945;-84
2022/09/25 08:28:47;;;;;;;;;;;15.90;93.20;;;;;;6125927;23;19939;-85
2022/09/25 08:31:14;;;;;;;;;;;16.00;92.40;;;;;;6099860;23;19921;-84
2022/09/25 08:33:48;;;;;;;;;;;16.00;91.50;;;;;;6126446;23;19917;-85
2022/09/25 08:36:15;;;;;;;;;;;16.10;92.20;;;;;;6124778;23;19948;-84
2022/09/25 08:38:42;;;;;;;;;;;16.20;91.90;;;;;;6122081;23;19948;-85
2022/09/25 08:41:14;;;;;;;;;;;16.50;92.00;;;;;;6123586;23;19948;-83
2022/09/25 08:43:43;;;;;;;;;;;16.90;90.60;;;;;;6123496;23;19965;-83
2022/09/25 08:49:10;;;;;;;;;;;17.40;87.40;;;;;;6100919;23;19925;-85
2022/09/25 08:51:39;;;;;;;;;;;17.40;85.10;;;;;;6123956;23;20309;-84
2022/09/25 08:54:08;;;;;;;;;;;17.10;84.90;;;;;;6124923;23;19917;-84
2022/09/25 08:56:36;;;;;;;;;;;17.30;86.00;;;;;;6128250;23;19917;-84
2022/09/25 08:59:14;;;;;;;;;;;17.40;83.00;;;;;;6126352;23;19921;-84
2022/09/25 09:01:45;;;;;;;;;;;17.50;82.10;;;;;;6127405;23;19952;-85
2022/09/25 09:04:17;;;;;;;;;;;17.40;77.60;;;;;;6126279;23;19918;-84
2022/09/25 09:06:46;;;;;;;;;;;17.40;79.10;;;;;;6125584;23;19917;-84
2022/09/25 09:09:25;;;;;;;;;;;17.40;77.90;;;;;;6123951;23;19924;-85
2022/09/25 09:12:06;;;;;;;;;;;17.20;77.60;;;;;;6125259;23;19941;-85
2022/09/25 09:14:37;;;;;;;;;;;17.00;78.50;;;;;;6124437;23;19944;-84
2022/09/25 09:17:06;;;;;;;;;;;17.00;79.10;;;;;;6125345;23;19917;-85
2022/09/25 09:19:33;;;;;;;;;;;17.10;77.30;;;;;;6124654;23;19996;-84
2022/09/25 09:22:10;;;;;;;;;;;17.10;78.60;;;;;;6101328;23;20004;-84
2022/09/25 09:24:49;;;;;;;;;;;17.20;77.60;;;;;;6122798;23;19945;-84
2022/09/25 09:27:15;;;;;;;;;;;17.40;78.40;;;;;;6122019;23;20334;-84
2022/09/25 09:29:42;;;;;;;;;;;17.50;77.40;;;;;;6123755;23;19924;-86
2022/09/25 09:32:28;;;;;;;;;;;17.60;76.50;;;;;;6127764;23;20406;-84
2022/09/25 09:35:14;;;;;;;;;;;17.70;76.40;;;;;;6132654;23;19917;-85
2022/09/25 09:37:49;;;;;;;;;;;17.80;77.00;;;;;;6132471;23;19956;-83
2022/09/25 09:40:19;;;;;;;;;;;17.90;76.10;;;;;;6134054;23;19917;-84
2022/09/25 09:42:52;;;;;;;;;;;17.90;73.50;;;;;;6132264;23;19917;-84
2022/09/25 09:45:27;;;;;;;;;;;17.70;72.80;;;;;;6135020;23;20290;-84
2022/09/25 09:48:08;;;;;;;;;;;17.80;74.40;;;;;;6134095;23;19921;-84
2022/09/25 09:50:46;;;;;;;;;;;17.90;75.00;;;;;;6109700;23;19933;-84
2022/09/25 09:53:31;;;;;;;;;;;18.00;74.40;;;;;;6121044;23;19925;-84
2022/09/25 09:56:09;;;;;;;;;;;18.00;74.00;;;;;;6131626;23;19962;-85
2022/09/25 09:58:36;;;;;;;;;;;18.10;75.30;;;;;;6132792;23;19960;-83
2022/09/25 10:01:03;;;;;;;;;;;18.10;74.70;;;;;;6132484;23;19941;-84
2022/09/25 10:03:57;;;;;;;;;;;18.20;75.10;;;;;;6128877;23;19948;-84
2022/09/25 10:06:26;;;;;;;;;;;18.20;74.40;;;;;;6131855;23;19949;-84
2022/09/25 10:08:53;;;;;;;;;;;18.00;73.40;;;;;;6108959;23;19921;-84
2022/09/25 10:11:21;;;;;;;;;;;18.00;73.90;;;;;;6133546;23;19941;-84
2022/09/25 10:13:48;;;;;;;;;;;18.00;74.20;;;;;;6126256;23;19955;-82
2022/09/25 10:16:16;;;;;;;;;;;17.90;74.00;;;;;;6107016;23;19932;-84
2022/09/25 10:18:49;;;;;;;;;;;18.00;75.40;;;;;;6135488;23;19944;-84
2022/09/25 10:21:18;;;;;;;;;;;18.10;73.60;;;;;;6134038;23;19953;-85
2022/09/25 10:23:45;;;;;;;;;;;18.20;72.70;;;;;;6111542;23;20001;-84
2022/09/25 10:26:27;;;;;;;;;;;18.30;72.80;;;;;;6133652;23;19948;-84
2022/09/25 10:28:58;;;;;;;;;;;18.40;73.50;;;;;;6129474;23;19924;-85
2022/09/25 10:31:42;;;;;;;;;;;18.60;74.50;;;;;;6132470;23;20228;-85
2022/09/25 10:34:12;;;;;;;;;;;18.70;70.80;;;;;;6135277;23;19958;-85
2022/09/25 10:36:41;;;;;;;;;;;18.80;71.70;;;;;;6132244;23;19928;-84
2022/09/25 10:39:27;;;;;;;;;;;19.00;72.00;;;;;;6137177;23;19924;-84
2022/09/25 10:42:29;;;;;;;;;;;19.00;69.80;;;;;;6134651;23;19908;-85
2022/09/25 10:44:56;;;;;;;;;;;19.10;70.60;;;;;;6137344;23;19924;-85
2022/09/25 10:50:12;;;;;;;;;;;19.10;70.50;;;;;;6115151;23;19917;-85
2022/09/25 10:52:58;;;;;;;;;;;19.10;70.60;;;;;;6144068;23;19949;-85
2022/09/25 10:55:29;;;;;;;;;;;18.80;69.80;;;;;;6136462;23;19933;-85
2022/09/25 10:58:11;;;;;;;;;;;18.90;70.40;;;;;;6109691;23;19933;-84
2022/09/25 11:00:50;;;;;;;;;;;19.10;69.80;;;;;;6143181;23;19928;-84
2022/09/25 11:03:20;;;;;;;;;;;19.20;70.30;;;;;;6143588;23;19917;-83
2022/09/25 11:05:59;;;;;;;;;;;19.10;71.40;;;;;;6142077;23;19924;-84
2022/09/25 11:08:29;;;;;;;;;;;19.00;72.10;;;;;;6136237;23;19924;-84
2022/09/25 11:10:56;;;;;;;;;;;19.00;71.10;;;;;;6111453;23;19956;-84
2022/09/25 11:13:25;;;;;;;;;;;19.10;72.70;;;;;;6134881;23;19941;-84
2022/09/25 11:15:55;;;;;;;;;;;19.30;69.90;;;;;;6132939;23;19933;-84
2022/09/25 11:18:43;;;;;;;;;;;19.50;70.30;;;;;;6139695;23;19936;-84
2022/09/25 11:21:18;;;;;;;;;;;19.50;70.00;;;;;;6140702;23;19901;-84
2022/09/25 11:24:05;;;;;;;;;;;19.40;69.20;;;;;;6137947;23;19933;-84
2022/09/25 11:26:35;;;;;;;;;;;19.80;69.40;;;;;;6102670;23;19940;-83
2022/09/25 11:29:03;;;;;;;;;;;20.00;66.50;;;;;;6140916;23;19977;-84
2022/09/25 11:31:36;;;;;;;;;;;20.10;67.20;;;;;;6138054;23;20311;-82
2022/09/25 11:34:10;;;;;;;;;;;20.00;67.30;;;;;;6140767;23;20302;-84
2022/09/25 11:36:42;;;;;;;;;;;20.10;68.30;;;;;;6137785;23;19941;-83
2022/09/25 11:42:27;;;;;;;;;;;19.80;67.40;;;;;;6118023;23;19917;-84
2022/09/25 11:45:14;;;;;;;;;;;19.60;68.80;;;;;;6135772;23;19991;-84
2022/09/25 11:47:52;;;;;;;;;;;19.70;68.30;;;;;;6125214;23;19993;-85
2022/09/25 11:50:21;;;;;;;;;;;19.80;67.20;;;;;;6132315;23;19917;-83
2022/09/25 11:53:03;;;;;;;;;;;19.90;67.50;;;;;;6118160;23;19917;-84
2022/09/25 11:55:35;;;;;;;;;;;20.20;67.30;;;;;;6137546;23;19941;-84
2022/09/25 11:58:20;;;;;;;;;;;20.60;65.30;;;;;;6132640;23;19917;-84
2022/09/25 12:01:10;;;;;;;;;;;20.90;66.10;;;;;;6136125;23;19941;-84
2022/09/25 12:03:59;;;;;;;;;;;21.20;62.20;;;;;;6104784;23;19917;-84
2022/09/25 12:06:47;;;;;;;;;;;21.00;63.00;;;;;;6129407;23;19917;-83
2022/09/25 12:09:29;;;;;;;;;;;21.00;63.80;;;;;;6104218;23;19936;-84
2022/09/25 12:12:02;;;;;;;;;;;21.50;63.00;;;;;;6135744;23;19924;-84
2022/09/25 12:14:47;;;;;;;;;;;21.20;63.00;;;;;;6132392;23;19925;-84
2022/09/25 12:17:33;;;;;;;;;;;21.30;63.30;;;;;;6118053;23;19944;-83
2022/09/25 12:20:10;;;;;;;;;;;21.20;62.90;;;;;;6128357;23;19921;-84
2022/09/25 12:22:50;;;;;;;;;;;21.50;63.40;;;;;;6109519;23;19949;-83
2022/09/25 12:25:35;;;;;;;;;;;21.60;62.00;;;;;;6133974;23;19936;-83
2022/09/25 12:28:24;;;;;;;;;;;21.70;61.60;;;;;;6137968;23;19928;-84
2022/09/25 12:31:11;;;;;;;;;;;21.30;61.80;;;;;;6137056;23;19917;-84
2022/09/25 12:33:47;;;;;;;;;;;21.20;62.00;;;;;;6087846;23;19917;-85
2022/09/25 12:36:20;;;;;;;;;;;21.00;62.60;;;;;;6126185;23;19921;-82
2022/09/25 12:38:54;;;;;;;;;;;20.90;63.00;;;;;;6133663;23;19901;-84
2022/09/25 12:41:28;;;;;;;;;;;20.60;63.20;;;;;;6133390;23;19940;-83
2022/09/25 12:43:59;;;;;;;;;;;20.70;64.60;;;;;;6135051;23;19917;-84
2022/09/25 12:46:38;;;;;;;;;;;20.60;64.10;;;;;;6131931;23;20279;-83
2022/09/25 12:49:14;;;;;;;;;;;20.50;63.50;;;;;;6107199;23;19917;-83
2022/09/25 12:51:49;;;;;;;;;;;20.50;63.70;;;;;;6103623;23;19940;-83
2022/09/25 12:54:16;;;;;;;;;;;20.40;63.50;;;;;;6125536;23;19921;-83
2022/09/25 12:56:55;;;;;;;;;;;20.50;63.50;;;;;;6124856;23;19937;-83
2022/09/25 12:59:37;;;;;;;;;;;20.50;63.50;;;;;;6122510;23;20289;-83
2022/09/25 13:02:15;;;;;;;;;;;20.30;63.60;;;;;;6123002;23;19924;-83
2022/09/25 13:05:01;;;;;;;;;;;20.40;64.40;;;;;;6127795;23;19917;-84
2022/09/25 13:07:27;;;;;;;;;;;20.20;56.60;;;;;;6121569;23;19917;-84
2022/09/25 13:09:54;;;;;;;;;;;19.70;55.70;;;;;;6121627;23;19980;-83
2022/09/25 13:12:32;;;;;;;;;;;19.20;60.20;;;;;;6120194;23;19917;-83
2022/09/25 13:15:08;;;;;;;;;;;18.80;61.50;;;;;;6119618;23;20335;-83
2022/09/25 13:17:35;;;;;;;;;;;18.40;64.00;;;;;;6118380;23;19984;-82
2022/09/25 13:20:21;;;;;;;;;;;18.00;65.20;;;;;;6118959;23;19941;-82
2022/09/25 13:22:47;;;;;;;;;;;17.70;67.60;;;;;;6118759;23;19917;-82
2022/09/25 13:25:15;;;;;;;;;;;17.40;70.90;;;;;;6119314;23;19992;-83
2022/09/25 13:27:44;;;;;;;;;;;17.10;73.80;;;;;;6094082;23;19936;-84
2022/09/25 13:30:24;;;;;;;;;;;16.80;76.80;;;;;;6119122;23;19921;-82
2022/09/25 13:32:52;;;;;;;;;;;16.70;79.50;;;;;;6118499;23;19968;-81
2022/09/25 13:35:20;;;;;;;;;;;16.50;82.70;;;;;;6096323;23;20000;-81
2022/09/25 13:37:48;;;;;;;;;;;16.50;84.00;;;;;;6118110;23;21056;-81
2022/09/25 13:43:15;;;;;;;;;;;16.40;88.00;;;;;;6066777;23;19945;-82
2022/09/25 13:45:42;;;;;;;;;;;16.50;88.80;;;;;;6065210;23;19924;-82
2022/09/25 13:48:11;;;;;;;;;;;16.90;90.70;;;;;;6067198;23;19922;-82
2022/09/25 13:50:39;;;;;;;;;;;17.30;89.70;;;;;;6065965;23;19952;-83
2022/09/25 13:53:21;;;;;;;;;;;17.70;84.10;;;;;;6106180;23;20000;-83
2022/09/25 13:55:53;;;;;;;;;;;18.10;80.20;;;;;;6118169;23;19941;-83
2022/09/25 13:58:25;;;;;;;;;;;18.50;77.20;;;;;;6119062;23;19921;-83
2022/09/25 14:00:57;;;;;;;;;;;18.90;75.20;;;;;;6120428;23;19921;-83
2022/09/25 14:03:31;;;;;;;;;;;19.10;72.90;;;;;;6120597;23;19927;-84
2022/09/25 14:05:58;;;;;;;;;;;19.30;72.90;;;;;;6119501;23;19945;-84
2022/09/25 14:08:26;;;;;;;;;;;19.50;70.90;;;;;;6124439;23;19941;-85
2022/09/25 14:10:54;;;;;;;;;;;19.60;70.00;;;;;;6132287;23;19968;-85
2022/09/25 14:13:22;;;;;;;;;;;19.80;68.80;;;;;;6127574;23;19992;-84
2022/09/25 14:15:49;;;;;;;;;;;19.90;67.70;;;;;;6122076;23;19996;-84
2022/09/25 14:18:22;;;;;;;;;;;20.00;65.80;;;;;;6120875;23;19924;-83
2022/09/25 14:20:50;;;;;;;;;;;20.10;64.80;;;;;;6097867;23;19940;-84
2022/09/25 14:23:25;;;;;;;;;;;20.20;66.50;;;;;;6126698;23;20258;-85
2022/09/25 14:25:59;;;;;;;;;;;20.30;65.70;;;;;;6123929;23;19972;-85
2022/09/25 14:28:27;;;;;;;;;;;20.40;65.40;;;;;;6122864;23;19917;-85
2022/09/25 14:31:13;;;;;;;;;;;20.50;65.30;;;;;;6124237;23;20258;-85
2022/09/25 14:34:03;;;;;;;;;;;20.60;63.80;;;;;;6128498;23;19920;-84
2022/09/25 14:36:34;;;;;;;;;;;20.70;63.20;;;;;;6122446;23;20000;-85
2022/09/25 14:39:11;;;;;;;;;;;20.70;58.70;;;;;;6121919;23;20074;-85
2022/09/25 14:41:42;;;;;;;;;;;20.80;59.60;;;;;;6120503;23;19925;-84
2022/09/25 14:44:18;;;;;;;;;;;20.80;57.10;;;;;;6101429;23;19985;-84
2022/09/25 14:46:48;;;;;;;;;;;20.90;59.30;;;;;;6068659;23;19968;-85
2022/09/25 14:49:22;;;;;;;;;;;20.80;59.10;;;;;;6070395;23;19965;-84
2022/09/25 14:51:52;;;;;;;;;;;20.90;58.70;;;;;;6111288;23;19917;-85
2022/09/25 14:54:21;;;;;;;;;;;21.00;59.30;;;;;;6127105;23;19948;-84
2022/09/25 14:56:51;;;;;;;;;;;21.00;59.90;;;;;;6124610;23;19988;-84
2022/09/25 14:59:30;;;;;;;;;;;21.10;58.60;;;;;;6125655;23;19956;-84
2022/09/25 15:01:58;;;;;;;;;;;21.20;58.10;;;;;;6126622;23;19924;-85
2022/09/25 15:04:26;;;;;;;;;;;21.40;57.20;;;;;;6125004;23;19917;-85